This is the latest recevied weather packets stored in our database for station/object WR7DW-3. If no packets are shown the sender has not sent any weather packets the latest 10 day(s).
| Time | Temp. | Humidity | Pressure | Rain* | Wind** | Luminosity | Snow |
|---|---|---|---|---|---|---|---|
| 1777880683 | 3.33° C | 66% | 1001.8 hPa | 0 mm | - | - | - |
| 1777879783 | 3.89° C | 63% | 1001.6 hPa | 0 mm | - | - | - |
| 1777878883 | 4.44° C | 61% | 1001.3 hPa | 0 mm | - | - | - |
| 1777877983 | 5° C | 59% | 1001.3 hPa | 0 mm | - | - | - |
| 1777877083 | 5° C | 60% | 1001 hPa | 0 mm | - | - | - |
| 1777876183 | 5.56° C | 58% | 1001.2 hPa | 0 mm | - | - | - |
| 1777875283 | 5.56° C | 57% | 1001.2 hPa | 0 mm | - | - | - |
| 1777874383 | 6.11° C | 55% | 1001.1 hPa | 0 mm | - | - | - |
| 1777873483 | 7.22° C | 52% | 1001.2 hPa | 0 mm | - | - | - |
| 1777872583 | 8.33° C | 48% | 1001.3 hPa | 0 mm | - | - | - |
| 1777871683 | 10° C | 45% | 1001.4 hPa | 0 mm | - | - | - |
| 1777870783 | 10° C | 44% | 1001.3 hPa | 0 mm | - | - | - |
| 1777869883 | 10° C | 45% | 1001.4 hPa | 0 mm | - | - | - |
| 1777868983 | 10° C | 44% | 1001.4 hPa | 0 mm | - | - | - |
| 1777868083 | 10.56° C | 44% | 1001.5 hPa | 0 mm | - | - | - |
| 1777867183 | 10.56° C | 43% | 1001.6 hPa | 0 mm | - | - | - |
| 1777866283 | 10.56° C | 44% | 1001.6 hPa | 0 mm | - | - | - |
| 1777865383 | 10.56° C | 44% | 1001.5 hPa | 0 mm | - | - | - |
| 1777864483 | 10.56° C | 44% | 1001.4 hPa | 0 mm | - | - | - |
| 1777863583 | 10.56° C | 44% | 1001.4 hPa | 0 mm | - | - | - |
| 1777862683 | 10.56° C | 44% | 1001.2 hPa | 0 mm | - | - | - |
| 1777860883 | 11.11° C | 42% | 1001.2 hPa | 0 mm | - | - | - |
| 1777859983 | 11.67° C | 40% | 1001.2 hPa | 0 mm | - | - | - |
| 1777859083 | 11.67° C | 41% | 1001.2 hPa | 0 mm | - | - | - |
| 1777858183 | 12.22° C | 39% | 1001.3 hPa | 0 mm | - | - | - |
* Rain latest hour (hover to see other rain measurements)
** Current wind speed in m/s (hover to see current wind gust speed)